Time;durP1;ratioP1;P1;durP2;ratioP2;P2;SDS_P1;SDS_P2;PMS_P1;PMS_P2;Temp;Humidity;BMP_temperature;BMP_pressure;BME280_temperature;BME280_humidity;BME280_pressure;Samples;Min_cycle;Max_cycle;Signal;HPM_P1;HPM_P2
2023/04/09 00:02:12;;;;;;;9.93;4.97;;;3.40;97.30;;;;;;4919773;29;20436;-88
2023/04/09 00:04:38;;;;;;;7.97;5.33;;;3.30;97.30;;;;;;4937837;29;20176;-88
2023/04/09 00:07:03;;;;;;;8.57;4.33;;;3.20;97.30;;;;;;4928409;29;20222;-88
2023/04/09 00:09:29;;;;;;;9.90;6.10;;;3.20;97.30;;;;;;4934045;29;20187;-90
2023/04/09 00:11:55;;;;;;;6.73;6.33;;;3.20;97.30;;;;;;4935762;29;20203;-88
2023/04/09 00:14:21;;;;;;;7.97;5.33;;;3.10;97.30;;;;;;4934005;29;20184;-89
2023/04/09 00:16:46;;;;;;;3.07;2.87;;;3.10;97.30;;;;;;4938204;29;20459;-88
2023/04/09 00:19:12;;;;;;;5.50;4.90;;;3.00;97.30;;;;;;4939552;29;20557;-89
2023/04/09 00:21:37;;;;;;;4.40;3.60;;;3.00;97.30;;;;;;4932812;28;20226;-89
2023/04/09 00:24:03;;;;;;;11.97;4.80;;;3.00;97.30;;;;;;4931452;29;20188;-88
2023/04/09 00:26:30;;;;;;;10.17;6.47;;;2.90;97.30;;;;;;4932446;29;20188;-88
2023/04/09 00:28:55;;;;;;;11.53;7.47;;;2.90;97.30;;;;;;4933704;29;20207;-88
2023/04/09 00:31:20;;;;;;;18.70;3.47;;;2.90;97.30;;;;;;4934695;29;20952;-88
2023/04/09 00:33:46;;;;;;;11.33;5.43;;;2.80;97.30;;;;;;4925646;29;20207;-89
2023/04/09 00:36:11;;;;;;;6.13;5.60;;;2.80;97.30;;;;;;4928984;29;20286;-87
2023/04/09 00:38:37;;;;;;;3.93;3.73;;;2.80;97.30;;;;;;4924402;29;20665;-89
2023/04/09 00:41:02;;;;;;;9.73;5.33;;;2.80;97.30;;;;;;4933621;29;20199;-89
2023/04/09 00:43:28;;;;;;;7.33;3.43;;;2.70;97.30;;;;;;4934023;29;20733;-88
2023/04/09 00:45:54;;;;;;;3.80;3.60;;;2.70;97.30;;;;;;4929384;29;20184;-88
2023/04/09 00:48:20;;;;;;;10.67;5.87;;;2.70;97.30;;;;;;4933251;29;20283;-88
2023/04/09 00:50:45;;;;;;;4.13;3.60;;;2.70;97.30;;;;;;4932081;29;20451;-90
2023/04/09 00:53:11;;;;;;;9.43;5.00;;;2.60;97.30;;;;;;4934288;29;20494;-88
2023/04/09 00:55:40;;;;;;;4.97;3.80;;;2.60;97.30;;;;;;4927723;29;20232;-86
2023/04/09 00:58:06;;;;;;;8.73;4.93;;;2.50;97.30;;;;;;4930183;29;20809;-88
2023/04/09 01:00:33;;;;;;;15.70;5.53;;;2.50;97.30;;;;;;4932788;29;20534;-89
2023/04/09 01:02:59;;;;;;;7.63;5.00;;;2.40;97.30;;;;;;4932838;29;20191;-88
2023/04/09 01:05:37;;;;;;;14.37;5.20;;;2.40;97.30;;;;;;4924892;29;20427;-88
2023/04/09 01:08:16;;;;;;;12.73;6.53;;;2.40;97.30;;;;;;4933155;29;20188;-88
2023/04/09 01:10:49;;;;;;;7.70;3.70;;;2.40;97.30;;;;;;4938663;29;20448;-88
2023/04/09 01:13:29;;;;;;;6.97;5.13;;;2.40;97.30;;;;;;4932797;29;20435;-89
2023/04/09 01:15:58;;;;;;;10.33;6.00;;;2.40;97.30;;;;;;4932933;29;20474;-88
2023/04/09 01:18:41;;;;;;;5.27;5.00;;;2.40;97.30;;;;;;4934619;29;20467;-88
2023/04/09 01:21:25;;;;;;;9.93;5.40;;;2.40;97.30;;;;;;4956356;28;20550;-88
2023/04/09 01:24:02;;;;;;;13.17;7.60;;;2.40;97.30;;;;;;4941411;29;20462;-88
2023/04/09 01:27:02;;;;;;;10.53;7.50;;;2.40;97.30;;;;;;4934300;29;20663;-88
2023/04/09 01:29:32;;;;;;;4.93;4.03;;;2.40;97.30;;;;;;4933824;29;20535;-88
2023/04/09 01:31:59;;;;;;;4.87;4.03;;;2.40;97.30;;;;;;4933061;29;20535;-88
2023/04/09 01:34:29;;;;;;;15.70;6.87;;;2.40;97.30;;;;;;4932646;29;20491;-88
2023/04/09 01:37:05;;;;;;;6.87;4.33;;;2.30;97.30;;;;;;4932563;29;20485;-88
2023/04/09 01:39:33;;;;;;;4.57;2.87;;;2.30;97.30;;;;;;4932112;29;20419;-88
2023/04/09 01:42:02;;;;;;;4.80;4.50;;;2.20;97.30;;;;;;4935534;29;20518;-88
2023/04/09 01:44:30;;;;;;;11.70;7.87;;;2.20;97.30;;;;;;4924290;29;20507;-89
2023/04/09 01:46:57;;;;;;;6.60;3.97;;;2.20;97.30;;;;;;4933157;29;20504;-89
2023/04/09 01:49:23;;;;;;;8.00;6.10;;;2.20;97.30;;;;;;4932298;29;20507;-89
2023/04/09 01:51:49;;;;;;;6.93;6.57;;;2.20;97.30;;;;;;4933746;29;20535;-87
2023/04/09 01:54:15;;;;;;;4.77;3.37;;;2.20;97.30;;;;;;4929970;29;20177;-90
2023/04/09 01:56:45;;;;;;;3.63;3.43;;;2.10;97.30;;;;;;4931190;29;20470;-89
2023/04/09 01:59:13;;;;;;;15.43;7.03;;;2.10;97.30;;;;;;4932178;29;20710;-89
2023/04/09 02:01:46;;;;;;;15.90;6.83;;;2.10;97.30;;;;;;4923120;29;20532;-90
2023/04/09 02:04:23;;;;;;;26.23;6.40;;;2.00;97.30;;;;;;4929561;29;20438;-88
2023/04/09 02:07:17;;;;;;;5.07;4.70;;;2.00;97.30;;;;;;4919388;29;20456;-88
2023/04/09 02:09:46;;;;;;;9.60;4.37;;;2.00;97.30;;;;;;4932164;29;20511;-88
2023/04/09 02:12:16;;;;;;;5.20;4.53;;;2.00;97.30;;;;;;4938810;29;20483;-89
2023/04/09 02:14:43;;;;;;;4.23;3.60;;;2.00;97.30;;;;;;4926769;29;20659;-89
2023/04/09 02:17:11;;;;;;;3.60;2.87;;;2.00;97.30;;;;;;4925043;29;20487;-88
2023/04/09 02:19:42;;;;;;;12.37;6.07;;;1.90;97.30;;;;;;4931214;29;20412;-88
2023/04/09 02:22:08;;;;;;;8.33;5.17;;;1.90;97.30;;;;;;4927123;29;20478;-88
2023/04/09 02:24:33;;;;;;;3.53;3.33;;;1.90;97.30;;;;;;4931650;29;20427;-89
2023/04/09 02:26:59;;;;;;;14.80;6.97;;;1.80;97.30;;;;;;4933709;29;20429;-88
2023/04/09 02:29:24;;;;;;;5.97;3.23;;;1.80;97.30;;;;;;4937649;29;20195;-89
2023/04/09 02:31:52;;;;;;;6.93;6.53;;;1.70;97.30;;;;;;4932471;29;20211;-88
2023/04/09 02:34:18;;;;;;;4.20;3.80;;;1.70;97.30;;;;;;4927469;29;20671;-88
2023/04/09 02:36:43;;;;;;;4.93;3.63;;;1.70;97.30;;;;;;4932509;29;20471;-88
2023/04/09 02:39:08;;;;;;;5.77;5.47;;;1.70;97.30;;;;;;4941405;29;20439;-88
2023/04/09 02:41:34;;;;;;;5.47;5.20;;;1.70;97.30;;;;;;4933714;29;20203;-89
2023/04/09 02:43:59;;;;;;;6.13;5.80;;;1.70;97.30;;;;;;4935961;29;20182;-88
2023/04/09 02:46:25;;;;;;;8.83;5.10;;;1.60;97.30;;;;;;4928823;29;20227;-90
2023/04/09 02:48:52;;;;;;;5.53;4.20;;;1.60;97.30;;;;;;4931107;29;20212;-88
2023/04/09 02:51:19;;;;;;;4.43;3.33;;;1.60;97.30;;;;;;4935249;29;20210;-87
2023/04/09 02:53:44;;;;;;;6.23;4.27;;;1.60;97.30;;;;;;4934523;29;20408;-88
2023/04/09 02:56:12;;;;;;;11.50;5.23;;;1.60;97.30;;;;;;4935444;29;21150;-88
2023/04/09 02:58:40;;;;;;;2.40;2.30;;;1.60;97.30;;;;;;4928296;29;20196;-89
2023/04/09 03:01:06;;;;;;;8.90;4.70;;;1.60;97.30;;;;;;4934328;29;20480;-88
2023/04/09 03:03:34;;;;;;;4.70;3.70;;;1.60;97.30;;;;;;4935966;29;20419;-89
2023/04/09 03:06:01;;;;;;;6.03;5.60;;;1.60;97.30;;;;;;4935053;29;20274;-87
2023/04/09 03:08:27;;;;;;;7.40;5.40;;;1.50;97.30;;;;;;4935473;29;20426;-88
2023/04/09 03:10:52;;;;;;;11.97;6.57;;;1.50;97.30;;;;;;4935160;29;20719;-85
2023/04/09 03:13:20;;;;;;;8.97;5.07;;;1.50;97.30;;;;;;4932755;29;20287;-88
2023/04/09 03:15:50;;;;;;;4.07;3.83;;;1.50;97.30;;;;;;4927033;29;20304;-88
2023/04/09 03:18:16;;;;;;;7.77;5.90;;;1.50;97.30;;;;;;4926597;29;20486;-89
2023/04/09 03:20:41;;;;;;;9.13;5.27;;;1.40;97.30;;;;;;4935113;29;20846;-89
2023/04/09 03:23:07;;;;;;;7.20;4.93;;;1.40;97.30;;;;;;4934815;29;20223;-89
2023/04/09 03:25:35;;;;;;;16.03;5.30;;;1.40;97.30;;;;;;4935072;29;20209;-89
2023/04/09 03:28:03;;;;;;;7.57;3.50;;;1.40;97.30;;;;;;4934143;29;20176;-88
2023/04/09 03:30:28;;;;;;;7.20;6.27;;;1.40;97.30;;;;;;4925363;29;20439;-88
2023/04/09 03:32:54;;;;;;;10.97;5.63;;;1.40;97.30;;;;;;4937049;29;20446;-87
2023/04/09 03:35:20;;;;;;;17.50;9.83;;;1.40;97.30;;;;;;4935272;29;20671;-90
2023/04/09 03:37:46;;;;;;;22.77;5.70;;;1.40;97.30;;;;;;4926416;29;20172;-89
2023/04/09 03:40:12;;;;;;;16.80;9.93;;;1.40;97.30;;;;;;4934852;29;20187;-88
2023/04/09 03:42:38;;;;;;;8.33;7.10;;;1.40;97.30;;;;;;4934271;29;20487;-89
2023/04/09 03:45:04;;;;;;;10.40;6.10;;;1.50;97.30;;;;;;4929818;29;20514;-88
2023/04/09 03:47:30;;;;;;;14.20;7.77;;;1.50;97.30;;;;;;4933121;29;20300;-88
2023/04/09 03:49:55;;;;;;;9.53;4.40;;;1.50;97.30;;;;;;4928168;29;20428;-88
2023/04/09 03:52:21;;;;;;;6.80;4.87;;;1.50;97.30;;;;;;4934820;29;20748;-88
2023/04/09 03:54:46;;;;;;;6.40;5.47;;;1.50;97.30;;;;;;4942746;28;20266;-88
2023/04/09 03:57:12;;;;;;;13.23;8.50;;;1.40;97.30;;;;;;4935473;29;20223;-89
2023/04/09 03:59:37;;;;;;;13.83;6.87;;;1.40;97.30;;;;;;4937367;29;20206;-88
2023/04/09 04:02:03;;;;;;;9.73;5.27;;;1.40;97.30;;;;;;4934332;29;20668;-89
2023/04/09 04:04:28;;;;;;;7.50;7.10;;;1.40;97.30;;;;;;4934480;29;20180;-89
2023/04/09 04:06:54;;;;;;;9.83;6.67;;;1.30;97.30;;;;;;4935247;29;20561;-88
2023/04/09 04:09:19;;;;;;;8.23;5.97;;;1.30;97.30;;;;;;4942508;29;20195;-90
2023/04/09 04:11:45;;;;;;;9.60;6.87;;;1.30;97.30;;;;;;4942995;29;20207;-89
2023/04/09 04:14:10;;;;;;;10.03;7.20;;;1.20;97.30;;;;;;4944104;29;20199;-89
2023/04/09 04:16:36;;;;;;;7.37;5.27;;;1.10;97.30;;;;;;4937335;29;20208;-89
2023/04/09 04:19:01;;;;;;;10.00;7.83;;;1.10;97.30;;;;;;4933046;29;20182;-89
2023/04/09 04:21:27;;;;;;;9.03;8.53;;;1.10;97.30;;;;;;4946516;29;20232;-89
2023/04/09 04:23:53;;;;;;;9.20;4.63;;;1.10;97.30;;;;;;4944209;29;20199;-89
2023/04/09 04:26:20;;;;;;;5.80;3.50;;;1.10;97.30;;;;;;4942496;29;20185;-89
2023/04/09 04:28:46;;;;;;;10.07;4.20;;;1.10;97.30;;;;;;4935258;29;20180;-88
2023/04/09 04:31:12;;;;;;;6.77;5.77;;;1.10;97.30;;;;;;4939028;29;20474;-88
2023/04/09 04:33:40;;;;;;;4.40;3.80;;;1.10;97.30;;;;;;4939595;29;20172;-89
2023/04/09 04:36:13;;;;;;;43.40;9.90;;;1.10;97.30;;;;;;4941589;29;20890;-88
2023/04/09 04:38:40;;;;;;;6.37;6.00;;;1.10;97.30;;;;;;4949775;28;21020;-91
2023/04/09 04:41:06;;;;;;;12.40;8.30;;;1.10;97.30;;;;;;4922998;29;20826;-88
2023/04/09 04:43:34;;;;;;;7.90;4.00;;;1.10;97.30;;;;;;4933606;29;20426;-88
2023/04/09 04:45:59;;;;;;;12.90;6.63;;;1.10;97.30;;;;;;4934225;29;20218;-89
2023/04/09 04:48:26;;;;;;;6.03;3.80;;;1.10;97.30;;;;;;4930848;29;20951;-88
2023/04/09 04:50:56;;;;;;;5.27;4.83;;;1.10;97.30;;;;;;4931088;29;20587;-91
2023/04/09 04:53:22;;;;;;;34.70;5.53;;;1.00;97.30;;;;;;4931025;29;20423;-88
2023/04/09 04:55:47;;;;;;;24.83;9.40;;;1.00;97.30;;;;;;4928998;29;20466;-88
2023/04/09 04:58:13;;;;;;;10.33;6.17;;;1.00;97.30;;;;;;4933166;29;20288;-88
2023/04/09 05:00:38;;;;;;;13.63;7.80;;;1.00;97.30;;;;;;4932852;29;20231;-88
2023/04/09 05:03:04;;;;;;;9.57;5.60;;;1.00;97.30;;;;;;4926379;29;20716;-90
2023/04/09 05:05:30;;;;;;;6.50;6.07;;;1.00;97.30;;;;;;4933003;29;20230;-88
2023/04/09 05:07:56;;;;;;;9.97;7.17;;;1.00;97.30;;;;;;4927774;29;20421;-88
2023/04/09 05:10:21;;;;;;;21.63;8.10;;;1.00;97.30;;;;;;4923007;29;20208;-88
2023/04/09 05:12:47;;;;;;;8.97;3.90;;;1.00;97.30;;;;;;4936582;29;20192;-89
2023/04/09 05:15:13;;;;;;;14.17;7.47;;;1.00;97.30;;;;;;4932809;29;20248;-88
2023/04/09 05:17:42;;;;;;;14.30;7.77;;;1.10;97.30;;;;;;4933556;29;20187;-88
2023/04/09 05:20:08;;;;;;;13.53;6.07;;;1.10;97.30;;;;;;4929373;29;20436;-88
2023/04/09 05:22:36;;;;;;;14.03;7.50;;;1.10;97.30;;;;;;4943021;28;20875;-88
2023/04/09 05:25:04;;;;;;;8.27;7.60;;;1.10;97.30;;;;;;4924292;29;20488;-88
2023/04/09 05:27:30;;;;;;;14.00;7.50;;;1.20;97.30;;;;;;4930844;29;20519;-90
2023/04/09 05:29:55;;;;;;;8.47;5.63;;;1.30;97.30;;;;;;4927622;29;20591;-88
2023/04/09 05:32:21;;;;;;;11.30;4.87;;;1.30;97.30;;;;;;4931514;29;20452;-88
2023/04/09 05:34:46;;;;;;;15.77;8.40;;;1.40;97.30;;;;;;4927133;29;20187;-88
2023/04/09 05:37:12;;;;;;;17.20;7.10;;;1.40;97.30;;;;;;4924249;29;20177;-88
2023/04/09 05:39:37;;;;;;;11.07;7.13;;;1.50;97.30;;;;;;4929781;29;20236;-87
2023/04/09 05:42:03;;;;;;;5.93;5.50;;;1.50;97.30;;;;;;4927720;29;20203;-89
2023/04/09 05:44:29;;;;;;;8.50;7.33;;;1.60;97.30;;;;;;4933447;29;20222;-87
2023/04/09 05:46:55;;;;;;;9.50;6.77;;;1.60;97.30;;;;;;4932136;29;20190;-88
2023/04/09 05:49:22;;;;;;;13.00;8.43;;;1.70;97.30;;;;;;4917547;29;20220;-88
2023/04/09 05:51:49;;;;;;;8.00;7.57;;;1.70;97.30;;;;;;4931879;29;20455;-86
2023/04/09 05:54:14;;;;;;;6.07;5.73;;;1.80;97.30;;;;;;4931643;29;20451;-88
2023/04/09 05:56:42;;;;;;;10.30;8.10;;;1.90;97.30;;;;;;4937050;28;20514;-88
2023/04/09 05:59:07;;;;;;;7.20;5.13;;;2.00;97.30;;;;;;4927877;29;20180;-88
2023/04/09 06:01:33;;;;;;;14.67;7.13;;;2.00;97.30;;;;;;4917556;29;20440;-88
2023/04/09 06:03:58;;;;;;;14.03;8.40;;;2.10;97.30;;;;;;4931448;29;20231;-88
2023/04/09 06:06:23;;;;;;;15.93;8.93;;;2.10;97.30;;;;;;4931645;29;20660;-88
2023/04/09 06:08:49;;;;;;;16.70;8.77;;;2.20;97.30;;;;;;4931520;29;20199;-86
2023/04/09 06:11:15;;;;;;;25.07;9.47;;;2.30;97.30;;;;;;4925108;29;20229;-88
2023/04/09 06:13:47;;;;;;;19.53;11.97;;;2.40;97.30;;;;;;4931480;29;20274;-88
2023/04/09 06:16:13;;;;;;;13.00;7.87;;;2.60;97.30;;;;;;4929731;29;20212;-88
2023/04/09 06:18:38;;;;;;;9.93;9.30;;;2.70;97.30;;;;;;4931668;29;20848;-88
2023/04/09 06:21:05;;;;;;;10.83;6.60;;;2.70;97.30;;;;;;4923638;29;20246;-89
2023/04/09 06:23:32;;;;;;;16.20;9.73;;;2.80;97.30;;;;;;4930401;29;20203;-88
2023/04/09 06:25:57;;;;;;;14.43;6.37;;;2.90;97.30;;;;;;4926389;29;20554;-88
2023/04/09 06:28:23;;;;;;;21.70;7.50;;;3.00;97.30;;;;;;4938590;29;20925;-88
2023/04/09 06:30:49;;;;;;;9.70;5.63;;;3.20;97.30;;;;;;4927882;29;20207;-86
2023/04/09 06:33:15;;;;;;;6.07;5.50;;;3.30;97.30;;;;;;4937198;28;20439;-88
2023/04/09 06:35:41;;;;;;;8.80;6.23;;;3.40;97.30;;;;;;4924389;29;20224;-88
2023/04/09 06:38:08;;;;;;;11.07;6.67;;;3.50;97.30;;;;;;4923633;29;20187;-88
2023/04/09 06:40:37;;;;;;;8.23;6.07;;;3.70;97.30;;;;;;4931590;29;20448;-88
2023/04/09 06:43:03;;;;;;;18.87;7.57;;;3.80;97.30;;;;;;4932362;29;20427;-89
2023/04/09 06:45:30;;;;;;;10.80;8.10;;;3.90;97.30;;;;;;4931704;29;20767;-88
2023/04/09 06:47:55;;;;;;;16.37;8.33;;;4.10;97.30;;;;;;4931198;29;20941;-90
2023/04/09 06:50:21;;;;;;;9.40;7.50;;;4.20;97.30;;;;;;4920943;29;20463;-88
2023/04/09 06:52:46;;;;;;;15.50;7.90;;;4.30;97.30;;;;;;4927547;29;20198;-88
2023/04/09 06:55:14;;;;;;;11.77;6.40;;;4.50;97.30;;;;;;4931252;29;20618;-85
2023/04/09 06:57:42;;;;;;;31.67;11.10;;;4.60;97.30;;;;;;4922384;29;20191;-88
2023/04/09 07:00:08;;;;;;;12.20;6.90;;;4.70;97.30;;;;;;4930433;29;20431;-88
2023/04/09 07:02:34;;;;;;;14.07;6.93;;;4.80;97.30;;;;;;4931244;29;20419;-89
2023/04/09 07:04:59;;;;;;;21.50;9.47;;;5.00;97.30;;;;;;4931559;29;20423;-88
2023/04/09 07:07:25;;;;;;;17.70;8.97;;;5.10;97.30;;;;;;4938250;29;20207;-88
2023/04/09 07:09:54;;;;;;;15.00;8.23;;;5.20;97.30;;;;;;4925544;29;20267;-88
2023/04/09 07:12:33;;;;;;;10.13;7.37;;;5.30;97.30;;;;;;4923726;29;20208;-88
2023/04/09 07:15:08;;;;;;;21.83;7.67;;;5.40;97.30;;;;;;4929265;29;20706;-88
2023/04/09 07:17:34;;;;;;;7.23;6.83;;;5.50;97.30;;;;;;4935143;29;20950;-89
2023/04/09 07:20:00;;;;;;;22.37;6.90;;;5.70;97.30;;;;;;4935289;29;20428;-88
2023/04/09 07:22:27;;;;;;;6.83;6.20;;;5.80;97.30;;;;;;4933957;29;20225;-89
2023/04/09 07:24:53;;;;;;;11.90;5.50;;;6.00;97.30;;;;;;4937795;28;20180;-88
2023/04/09 07:27:23;;;;;;;10.73;7.13;;;6.10;97.30;;;;;;4928244;29;20464;-90
2023/04/09 07:29:49;;;;;;;26.47;6.80;;;6.20;97.30;;;;;;4929774;29;20439;-89
2023/04/09 07:32:15;;;;;;;9.13;5.50;;;6.30;97.30;;;;;;4932047;29;20448;-88
2023/04/09 07:34:44;;;;;;;8.27;6.10;;;6.40;97.30;;;;;;4935116;29;20206;-89
2023/04/09 07:37:10;;;;;;;15.17;7.43;;;6.50;97.30;;;;;;4939620;29;20469;-88
2023/04/09 07:39:35;;;;;;;24.37;6.73;;;6.50;97.30;;;;;;4933399;29;20438;-88
2023/04/09 07:42:03;;;;;;;15.00;8.70;;;6.60;97.30;;;;;;4943949;28;20447;-88
2023/04/09 07:44:29;;;;;;;24.03;10.80;;;6.70;97.30;;;;;;4939168;29;20198;-87
2023/04/09 07:46:55;;;;;;;9.00;6.50;;;6.90;97.30;;;;;;4947043;29;20423;-90
2023/04/09 07:49:21;;;;;;;8.33;6.90;;;7.00;97.30;;;;;;4935518;29;20961;-90
2023/04/09 07:51:46;;;;;;;10.90;5.97;;;7.10;97.30;;;;;;4945078;29;20479;-89
2023/04/09 07:54:11;;;;;;;16.30;7.77;;;7.20;97.30;;;;;;4934568;29;20191;-88
2023/04/09 07:56:37;;;;;;;14.57;6.13;;;7.40;97.30;;;;;;4947927;28;20680;-89
2023/04/09 07:59:05;;;;;;;14.43;8.33;;;7.50;97.30;;;;;;4929745;29;20192;-89
2023/04/09 08:01:33;;;;;;;18.10;8.40;;;7.70;97.30;;;;;;4936243;29;20576;-89
2023/04/09 08:04:06;;;;;;;15.47;7.80;;;7.80;97.30;;;;;;4934951;29;20479;-88
2023/04/09 08:06:34;;;;;;;8.60;6.97;;;7.90;97.30;;;;;;4932046;29;20438;-89
2023/04/09 08:09:05;;;;;;;15.67;8.97;;;8.00;97.30;;;;;;4934353;29;20820;-88
2023/04/09 08:11:33;;;;;;;8.57;5.33;;;8.00;97.30;;;;;;4934229;29;20991;-89
2023/04/09 08:14:03;;;;;;;12.77;7.57;;;8.20;97.30;;;;;;4947137;29;20420;-89
2023/04/09 08:16:34;;;;;;;9.03;8.07;;;8.30;97.30;;;;;;4948056;29;20451;-92
2023/04/09 08:19:00;;;;;;;24.60;6.80;;;8.40;97.30;;;;;;4960607;28;20539;-88
2023/04/09 08:21:25;;;;;;;13.27;7.80;;;8.60;97.30;;;;;;4935315;29;20515;-88
2023/04/09 08:23:58;;;;;;;6.83;5.33;;;8.70;97.30;;;;;;4932210;28;20262;-88
2023/04/09 08:26:23;;;;;;;12.20;6.23;;;8.80;97.30;;;;;;4932715;29;20603;-88
2023/04/09 08:28:50;;;;;;;15.77;5.07;;;8.90;97.30;;;;;;4936792;29;20475;-88
2023/04/09 08:31:16;;;;;;;9.60;6.37;;;9.00;97.30;;;;;;4931076;29;20201;-88
2023/04/09 08:33:41;;;;;;;8.37;5.97;;;9.10;97.30;;;;;;4939088;29;20411;-88
2023/04/09 08:36:10;;;;;;;17.83;8.17;;;9.10;97.30;;;;;;4924027;29;20204;-89
2023/04/09 08:38:35;;;;;;;20.53;7.50;;;9.20;97.30;;;;;;4940536;29;20177;-88
2023/04/09 08:41:01;;;;;;;13.93;6.47;;;9.30;97.30;;;;;;4936402;29;20471;-88
2023/04/09 08:43:27;;;;;;;7.20;4.20;;;9.40;97.30;;;;;;4933876;29;20191;-88
2023/04/09 08:45:56;;;;;;;14.03;6.13;;;9.60;97.30;;;;;;4929153;29;20271;-89
2023/04/09 08:48:23;;;;;;;10.60;6.60;;;9.60;96.50;;;;;;4936076;29;20918;-89
2023/04/09 08:50:51;;;;;;;13.13;8.70;;;9.70;97.20;;;;;;4935385;29;20460;-89
2023/04/09 08:53:18;;;;;;;16.23;10.17;;;9.80;96.80;;;;;;4951955;29;20443;-89
2023/04/09 08:55:45;;;;;;;16.80;8.07;;;9.90;96.90;;;;;;4934200;29;20477;-89
2023/04/09 08:58:13;;;;;;;6.13;5.50;;;9.90;96.10;;;;;;4936083;29;20937;-89
2023/04/09 09:00:39;;;;;;;9.93;6.20;;;10.10;96.20;;;;;;4930601;29;20455;-90
2023/04/09 09:03:07;;;;;;;5.30;5.00;;;10.20;96.00;;;;;;4930963;29;20420;-89
2023/04/09 09:05:38;;;;;;;13.60;7.13;;;10.20;94.70;;;;;;4925057;29;20420;-89
2023/04/09 09:08:03;;;;;;;7.00;5.83;;;10.30;95.50;;;;;;4932740;29;20470;-89
2023/04/09 09:10:45;;;;;;;13.67;5.77;;;10.40;95.30;;;;;;4930447;29;20457;-89
2023/04/09 09:13:24;;;;;;;4.70;3.50;;;10.50;94.20;;;;;;4927265;29;20440;-90
2023/04/09 09:16:10;;;;;;;7.27;4.33;;;10.60;93.80;;;;;;4937950;29;20466;-89
2023/04/09 09:18:43;;;;;;;10.70;5.73;;;10.60;93.00;;;;;;4936416;29;20428;-90
2023/04/09 09:21:12;;;;;;;8.57;4.80;;;10.80;93.90;;;;;;4929983;29;20459;-89
2023/04/09 09:23:38;;;;;;;10.23;5.20;;;10.80;92.50;;;;;;4939882;28;20416;-89
2023/04/09 09:26:37;;;;;;;10.13;4.50;;;10.90;92.50;;;;;;4932814;29;20447;-89
2023/04/09 09:29:04;;;;;;;9.33;4.87;;;11.10;92.30;;;;;;4931236;29;20192;-89
2023/04/09 09:31:29;;;;;;;16.50;5.20;;;11.20;91.30;;;;;;4933004;29;20435;-90
2023/04/09 09:33:55;;;;;;;9.20;6.20;;;11.20;90.90;;;;;;4938735;29;20429;-89
2023/04/09 09:36:34;;;;;;;11.83;5.53;;;11.40;91.50;;;;;;4933772;29;20303;-90
2023/04/09 09:39:02;;;;;;;3.70;3.50;;;11.50;91.00;;;;;;4942445;29;20182;-89
2023/04/09 09:41:28;;;;;;;7.00;4.73;;;11.60;90.80;;;;;;4929243;29;20440;-89
2023/04/09 09:43:54;;;;;;;7.53;5.80;;;11.50;89.70;;;;;;4949955;29;20621;-89
2023/04/09 09:46:20;;;;;;;8.30;5.40;;;11.40;90.30;;;;;;4929025;29;20452;-89
2023/04/09 09:48:46;;;;;;;16.80;6.80;;;11.40;90.60;;;;;;4933205;29;20271;-89
2023/04/09 09:51:14;;;;;;;8.33;5.60;;;11.40;91.10;;;;;;4934712;29;20467;-89
2023/04/09 09:53:42;;;;;;;9.93;6.50;;;11.40;91.20;;;;;;4933468;29;20184;-89
2023/04/09 09:56:17;;;;;;;10.70;6.50;;;11.50;91.30;;;;;;4933778;29;20467;-89
2023/04/09 09:58:51;;;;;;;15.63;7.93;;;11.60;91.30;;;;;;4924894;29;20519;-89
2023/04/09 10:01:18;;;;;;;5.50;3.33;;;11.80;90.30;;;;;;4927146;29;20449;-89
2023/04/09 10:03:48;;;;;;;13.93;4.83;;;11.80;90.10;;;;;;4932648;29;20510;-89
2023/04/09 10:06:14;;;;;;;8.50;5.40;;;11.90;90.70;;;;;;4926092;29;20428;-89
2023/04/09 10:08:41;;;;;;;6.60;4.80;;;12.00;89.80;;;;;;4926637;29;20812;-89
2023/04/09 10:11:07;;;;;;;13.00;6.50;;;12.10;89.50;;;;;;4925667;29;20452;-89
2023/04/09 10:13:38;;;;;;;12.23;4.50;;;12.10;90.20;;;;;;4925736;29;20436;-88
2023/04/09 10:16:06;;;;;;;11.87;6.10;;;12.30;90.60;;;;;;4933605;29;20513;-90
2023/04/09 10:18:35;;;;;;;11.00;6.30;;;12.40;90.10;;;;;;4925620;29;20424;-87
2023/04/09 10:21:26;;;;;;;10.97;5.40;;;12.40;89.40;;;;;;4935306;29;20448;-89
2023/04/09 10:23:52;;;;;;;8.50;4.80;;;12.60;89.60;;;;;;4930473;29;20455;-89
2023/04/09 10:26:26;;;;;;;10.33;4.60;;;12.80;88.70;;;;;;4929133;29;20948;-86
2023/04/09 10:29:15;;;;;;;9.40;4.60;;;12.80;87.30;;;;;;4932477;29;20442;-86
2023/04/09 10:32:05;;;;;;;8.63;5.67;;;12.80;88.10;;;;;;4939716;28;20979;-87
2023/04/09 10:34:44;;;;;;;7.17;3.93;;;12.80;87.30;;;;;;4930536;29;20682;-86
2023/04/09 10:37:36;;;;;;;10.10;5.63;;;12.90;87.30;;;;;;4946577;28;20989;-87
2023/04/09 10:40:05;;;;;;;5.00;4.70;;;13.00;88.00;;;;;;4927615;29;20427;-86
2023/04/09 10:42:48;;;;;;;7.70;5.50;;;13.20;88.70;;;;;;4926200;29;20431;-88
2023/04/09 10:45:18;;;;;;;6.43;5.20;;;13.20;85.80;;;;;;4934920;29;20809;-89
2023/04/09 10:48:04;;;;;;;11.83;6.47;;;13.10;85.70;;;;;;4926026;29;21021;-88
2023/04/09 10:50:35;;;;;;;6.10;3.97;;;13.20;85.80;;;;;;4952969;28;20748;-89
2023/04/09 10:53:05;;;;;;;8.80;5.57;;;13.20;84.70;;;;;;4951610;28;20431;-89
2023/04/09 10:55:46;;;;;;;7.13;5.23;;;13.20;84.80;;;;;;4934563;29;20503;-89
2023/04/09 10:58:14;;;;;;;9.03;4.90;;;13.30;84.10;;;;;;4937255;29;20517;-88
2023/04/09 11:00:58;;;;;;;8.43;5.20;;;13.40;88.80;;;;;;4942380;29;20452;-89
2023/04/09 11:03:30;;;;;;;9.50;4.90;;;13.60;86.50;;;;;;4946718;28;20518;-89
2023/04/09 11:06:07;;;;;;;8.97;6.20;;;13.80;85.80;;;;;;4925930;29;20976;-89
2023/04/09 11:08:37;;;;;;;10.17;6.60;;;14.00;87.80;;;;;;4931576;29;20446;-90
2023/04/09 11:11:03;;;;;;;5.93;4.20;;;14.10;87.90;;;;;;4924977;29;21508;-89
2023/04/09 11:13:30;;;;;;;5.80;5.07;;;14.10;87.10;;;;;;4936822;29;20975;-89
2023/04/09 11:15:57;;;;;;;15.23;7.87;;;14.20;87.60;;;;;;4931329;29;20471;-89
2023/04/09 11:18:24;;;;;;;6.83;6.10;;;14.20;88.00;;;;;;4936964;29;20925;-89
2023/04/09 11:21:09;;;;;;;7.70;5.90;;;14.30;88.20;;;;;;4948485;28;20460;-89
2023/04/09 11:23:35;;;;;;;8.47;5.17;;;14.40;86.90;;;;;;4933622;29;20486;-89
2023/04/09 11:26:01;;;;;;;10.67;5.30;;;14.40;85.60;;;;;;4934833;29;20428;-89
2023/04/09 11:28:26;;;;;;;13.13;6.10;;;14.50;86.20;;;;;;4935088;29;20810;-89
2023/04/09 11:30:52;;;;;;;7.87;5.17;;;14.50;86.30;;;;;;4935641;29;20205;-89
2023/04/09 11:33:18;;;;;;;9.60;4.10;;;14.60;85.60;;;;;;4931530;28;20187;-89
2023/04/09 11:35:44;;;;;;;8.13;4.77;;;14.80;84.60;;;;;;4934889;29;20208;-89
2023/04/09 11:38:12;;;;;;;8.40;5.20;;;14.80;83.80;;;;;;4930963;29;20650;-89
2023/04/09 11:40:46;;;;;;;8.17;5.80;;;14.90;84.40;;;;;;4935438;29;20204;-89
2023/04/09 11:43:15;;;;;;;9.50;7.00;;;15.00;84.90;;;;;;4934961;29;20416;-89
2023/04/09 11:45:40;;;;;;;7.50;5.40;;;15.00;84.60;;;;;;4946731;28;20427;-88
2023/04/09 11:48:06;;;;;;;10.77;4.77;;;15.00;82.50;;;;;;4930980;29;20626;-89
2023/04/09 11:50:32;;;;;;;10.33;4.80;;;15.10;83.70;;;;;;4934121;29;20243;-87
2023/04/09 11:52:58;;;;;;;3.80;3.37;;;15.20;84.80;;;;;;4933724;29;20184;-89
2023/04/09 11:55:28;;;;;;;5.63;5.37;;;15.40;84.70;;;;;;4932943;29;20339;-89
2023/04/09 11:57:59;;;;;;;5.23;3.43;;;15.50;82.00;;;;;;4933878;29;20183;-88
2023/04/09 12:00:28;;;;;;;8.90;5.93;;;15.60;83.90;;;;;;4936689;29;20458;-88
2023/04/09 12:03:26;;;;;;;10.27;5.30;;;15.70;83.90;;;;;;4934177;29;20424;-89
2023/04/09 12:05:55;;;;;;;10.13;4.33;;;15.90;84.00;;;;;;4896411;29;20496;-89
2023/04/09 12:08:26;;;;;;;9.17;7.30;;;16.00;83.30;;;;;;4928072;29;20433;-88
2023/04/09 12:10:55;;;;;;;10.70;7.13;;;16.20;82.60;;;;;;4933033;29;20447;-89
2023/04/09 12:13:31;;;;;;;12.00;6.10;;;16.30;81.60;;;;;;4925837;29;20463;-89
2023/04/09 12:15:57;;;;;;;12.13;7.30;;;16.20;80.00;;;;;;4937878;29;20479;-89
2023/04/09 12:18:25;;;;;;;12.27;6.77;;;16.00;81.20;;;;;;4947057;29;20427;-89
2023/04/09 12:20:54;;;;;;;11.17;5.70;;;15.70;81.40;;;;;;4939821;29;20473;-88
2023/04/09 12:23:24;;;;;;;10.93;6.60;;;15.60;82.20;;;;;;4944310;28;20432;-88
2023/04/09 12:26:04;;;;;;;6.33;4.17;;;15.70;82.20;;;;;;4941498;29;20428;-89
2023/04/09 12:28:30;;;;;;;7.47;3.93;;;15.80;83.20;;;;;;4936295;29;20514;-89
2023/04/09 12:30:58;;;;;;;11.47;5.50;;;15.70;81.10;;;;;;4932001;29;20539;-89
2023/04/09 12:33:26;;;;;;;14.60;5.07;;;15.30;80.90;;;;;;4933497;29;20188;-88
2023/04/09 12:36:16;;;;;;;14.10;4.83;;;15.10;81.80;;;;;;4933996;29;20463;-89
2023/04/09 12:38:45;;;;;;;14.73;5.83;;;15.30;83.50;;;;;;4928248;29;20909;-88
2023/04/09 12:41:18;;;;;;;12.00;4.70;;;15.70;83.30;;;;;;4932934;29;20459;-89
2023/04/09 12:43:46;;;;;;;10.03;6.10;;;16.00;81.80;;;;;;4932593;29;20424;-89
2023/04/09 12:46:15;;;;;;;8.47;6.10;;;16.10;80.70;;;;;;4936398;28;20457;-89
2023/04/09 12:48:40;;;;;;;7.00;4.90;;;16.40;80.80;;;;;;4932874;28;20491;-89
2023/04/09 12:51:06;;;;;;;19.30;6.20;;;16.60;78.80;;;;;;4928559;29;20448;-89
2023/04/09 12:53:32;;;;;;;7.77;4.17;;;16.70;80.00;;;;;;4935260;29;20184;-89
2023/04/09 12:55:57;;;;;;;5.97;5.00;;;16.90;78.00;;;;;;4926760;29;20199;-89